sensor_id;sensor_type;location;lat;lon;timestamp;temperature;humidity
74155;DHT22;62509;46.248;6.018;2024-02-04T00:02:41;4.90;99.90
74155;DHT22;62509;46.248;6.018;2024-02-04T00:07:45;4.80;99.90
74155;DHT22;62509;46.248;6.018;2024-02-04T00:12:50;4.70;99.90
74155;DHT22;62509;46.248;6.018;2024-02-04T00:17:53;4.80;99.90
74155;DHT22;62509;46.248;6.018;2024-02-04T00:22:57;4.80;99.90
74155;DHT22;62509;46.248;6.018;2024-02-04T00:28:02;4.80;99.90
74155;DHT22;62509;46.248;6.018;2024-02-04T00:33:07;4.60;99.90
74155;DHT22;62509;46.248;6.018;2024-02-04T00:38:11;4.60;99.90
74155;DHT22;62509;46.248;6.018;2024-02-04T00:43:16;4.60;99.90
74155;DHT22;62509;46.248;6.018;2024-02-04T00:48:19;4.70;99.90
74155;DHT22;62509;46.248;6.018;2024-02-04T00:53:23;4.80;99.90
74155;DHT22;62509;46.248;6.018;2024-02-04T00:58:29;4.80;99.90
74155;DHT22;62509;46.248;6.018;2024-02-04T01:03:33;4.90;99.90
74155;DHT22;62509;46.248;6.018;2024-02-04T01:08:37;4.90;99.90
74155;DHT22;62509;46.248;6.018;2024-02-04T01:13:41;4.90;99.90
74155;DHT22;62509;46.248;6.018;2024-02-04T01:18:45;4.90;99.90
74155;DHT22;62509;46.248;6.018;2024-02-04T01:23:48;4.80;99.90
74155;DHT22;62509;46.248;6.018;2024-02-04T01:28:54;4.80;99.90
74155;DHT22;62509;46.248;6.018;2024-02-04T01:33:57;4.80;99.90
74155;DHT22;62509;46.248;6.018;2024-02-04T01:39:01;4.60;99.90
74155;DHT22;62509;46.248;6.018;2024-02-04T01:44:05;4.60;99.90
74155;DHT22;62509;46.248;6.018;2024-02-04T01:49:09;4.60;99.90
74155;DHT22;62509;46.248;6.018;2024-02-04T01:54:12;4.60;99.90
74155;DHT22;62509;46.248;6.018;2024-02-04T01:59:18;4.60;99.90
74155;DHT22;62509;46.248;6.018;2024-02-04T02:04:21;4.60;99.90
74155;DHT22;62509;46.248;6.018;2024-02-04T02:09:25;4.50;99.90
74155;DHT22;62509;46.248;6.018;2024-02-04T02:14:33;4.50;99.90
74155;DHT22;62509;46.248;6.018;2024-02-04T02:19:40;4.50;99.90
74155;DHT22;62509;46.248;6.018;2024-02-04T02:24:51;4.60;99.90
74155;DHT22;62509;46.248;6.018;2024-02-04T02:29:55;4.60;99.90
74155;DHT22;62509;46.248;6.018;2024-02-04T02:34:58;4.60;99.90
74155;DHT22;62509;46.248;6.018;2024-02-04T02:40:05;4.60;99.90
74155;DHT22;62509;46.248;6.018;2024-02-04T02:45:12;4.50;99.90
74155;DHT22;62509;46.248;6.018;2024-02-04T02:50:16;4.50;99.90
74155;DHT22;62509;46.248;6.018;2024-02-04T02:55:21;4.40;99.90
74155;DHT22;62509;46.248;6.018;2024-02-04T03:00:25;4.40;99.90
74155;DHT22;62509;46.248;6.018;2024-02-04T03:05:28;4.30;99.90
74155;DHT22;62509;46.248;6.018;2024-02-04T03:10:33;4.30;99.90
74155;DHT22;62509;46.248;6.018;2024-02-04T03:15:37;4.40;99.90
74155;DHT22;62509;46.248;6.018;2024-02-04T03:20:42;4.40;99.90
74155;DHT22;62509;46.248;6.018;2024-02-04T03:25:47;4.50;99.90
74155;DHT22;62509;46.248;6.018;2024-02-04T03:30:51;4.50;99.90
74155;DHT22;62509;46.248;6.018;2024-02-04T03:35:54;4.50;99.90
74155;DHT22;62509;46.248;6.018;2024-02-04T03:40:59;4.40;99.90
74155;DHT22;62509;46.248;6.018;2024-02-04T03:46:03;4.40;99.90
74155;DHT22;62509;46.248;6.018;2024-02-04T03:51:06;4.40;99.90
74155;DHT22;62509;46.248;6.018;2024-02-04T03:56:12;4.40;99.90
74155;DHT22;62509;46.248;6.018;2024-02-04T04:01:15;4.30;99.90
74155;DHT22;62509;46.248;6.018;2024-02-04T04:06:19;4.20;99.90
74155;DHT22;62509;46.248;6.018;2024-02-04T04:11:25;4.30;99.90
74155;DHT22;62509;46.248;6.018;2024-02-04T04:16:28;4.20;99.90
74155;DHT22;62509;46.248;6.018;2024-02-04T04:21:32;4.10;99.90
74155;DHT22;62509;46.248;6.018;2024-02-04T04:26:36;3.90;99.90
74155;DHT22;62509;46.248;6.018;2024-02-04T04:31:40;3.90;99.90
74155;DHT22;62509;46.248;6.018;2024-02-04T04:36:43;3.90;99.90
74155;DHT22;62509;46.248;6.018;2024-02-04T04:41:48;3.90;99.90
74155;DHT22;62509;46.248;6.018;2024-02-04T04:46:52;3.90;99.90
74155;DHT22;62509;46.248;6.018;2024-02-04T04:51:55;3.80;99.90
74155;DHT22;62509;46.248;6.018;2024-02-04T04:57:00;3.80;99.90
74155;DHT22;62509;46.248;6.018;2024-02-04T05:02:04;3.80;99.90
74155;DHT22;62509;46.248;6.018;2024-02-04T05:07:08;3.80;99.90
74155;DHT22;62509;46.248;6.018;2024-02-04T05:12:13;3.90;99.90
74155;DHT22;62509;46.248;6.018;2024-02-04T05:17:16;3.90;99.90
74155;DHT22;62509;46.248;6.018;2024-02-04T05:22:20;3.80;99.90
74155;DHT22;62509;46.248;6.018;2024-02-04T05:27:24;3.80;99.90
74155;DHT22;62509;46.248;6.018;2024-02-04T05:32:28;3.80;99.90
74155;DHT22;62509;46.248;6.018;2024-02-04T05:37:32;3.70;99.90
74155;DHT22;62509;46.248;6.018;2024-02-04T05:42:37;3.70;99.90
74155;DHT22;62509;46.248;6.018;2024-02-04T05:47:40;3.60;99.90
74155;DHT22;62509;46.248;6.018;2024-02-04T05:52:44;3.70;99.90
74155;DHT22;62509;46.248;6.018;2024-02-04T05:57:49;3.60;99.90
74155;DHT22;62509;46.248;6.018;2024-02-04T06:02:52;3.60;99.90
74155;DHT22;62509;46.248;6.018;2024-02-04T06:07:55;3.60;99.90
74155;DHT22;62509;46.248;6.018;2024-02-04T06:13:00;3.60;99.90
74155;DHT22;62509;46.248;6.018;2024-02-04T06:18:03;3.50;99.90
74155;DHT22;62509;46.248;6.018;2024-02-04T06:23:07;3.60;99.90
74155;DHT22;62509;46.248;6.018;2024-02-04T06:28:12;3.60;99.90
74155;DHT22;62509;46.248;6.018;2024-02-04T06:33:16;3.50;99.90
74155;DHT22;62509;46.248;6.018;2024-02-04T06:38:22;3.50;99.90
74155;DHT22;62509;46.248;6.018;2024-02-04T06:43:26;3.50;99.90
74155;DHT22;62509;46.248;6.018;2024-02-04T06:48:30;3.50;99.90
74155;DHT22;62509;46.248;6.018;2024-02-04T06:53:33;3.60;99.90
74155;DHT22;62509;46.248;6.018;2024-02-04T06:58:38;3.50;99.90
74155;DHT22;62509;46.248;6.018;2024-02-04T07:03:42;3.50;99.90
74155;DHT22;62509;46.248;6.018;2024-02-04T07:08:45;3.50;99.90
74155;DHT22;62509;46.248;6.018;2024-02-04T07:13:50;3.50;99.90
74155;DHT22;62509;46.248;6.018;2024-02-04T07:19:00;3.40;99.90
74155;DHT22;62509;46.248;6.018;2024-02-04T07:24:04;3.50;99.90
74155;DHT22;62509;46.248;6.018;2024-02-04T07:29:10;3.50;99.90
74155;DHT22;62509;46.248;6.018;2024-02-04T07:34:13;3.50;99.90
74155;DHT22;62509;46.248;6.018;2024-02-04T07:39:16;3.50;99.90
74155;DHT22;62509;46.248;6.018;2024-02-04T07:44:21;3.50;99.90
74155;DHT22;62509;46.248;6.018;2024-02-04T07:49:26;3.60;99.90
74155;DHT22;62509;46.248;6.018;2024-02-04T07:54:30;3.60;99.90
74155;DHT22;62509;46.248;6.018;2024-02-04T07:59:36;3.70;99.90
74155;DHT22;62509;46.248;6.018;2024-02-04T08:04:40;3.80;99.90
74155;DHT22;62509;46.248;6.018;2024-02-04T08:09:44;4.00;99.90
74155;DHT22;62509;46.248;6.018;2024-02-04T08:14:49;4.20;99.90
74155;DHT22;62509;46.248;6.018;2024-02-04T08:19:52;4.30;99.90
74155;DHT22;62509;46.248;6.018;2024-02-04T08:24:56;4.40;99.90
74155;DHT22;62509;46.248;6.018;2024-02-04T08:30:01;4.60;99.90
74155;DHT22;62509;46.248;6.018;2024-02-04T08:35:05;4.70;99.90
74155;DHT22;62509;46.248;6.018;2024-02-04T08:40:09;4.90;99.90
74155;DHT22;62509;46.248;6.018;2024-02-04T08:45:15;5.00;99.90
74155;DHT22;62509;46.248;6.018;2024-02-04T08:50:18;5.20;99.90
74155;DHT22;62509;46.248;6.018;2024-02-04T08:55:22;5.40;99.90
74155;DHT22;62509;46.248;6.018;2024-02-04T09:00:27;5.50;99.90
74155;DHT22;62509;46.248;6.018;2024-02-04T09:05:30;5.60;99.90
74155;DHT22;62509;46.248;6.018;2024-02-04T09:10:34;5.80;99.90
74155;DHT22;62509;46.248;6.018;2024-02-04T09:15:38;5.90;99.90
74155;DHT22;62509;46.248;6.018;2024-02-04T09:20:42;6.10;99.90
74155;DHT22;62509;46.248;6.018;2024-02-04T09:25:46;6.30;99.90
74155;DHT22;62509;46.248;6.018;2024-02-04T09:30:51;6.50;99.90
74155;DHT22;62509;46.248;6.018;2024-02-04T09:35:55;6.70;99.90
74155;DHT22;62509;46.248;6.018;2024-02-04T09:41:00;6.80;99.90
74155;DHT22;62509;46.248;6.018;2024-02-04T09:46:06;7.00;99.90
74155;DHT22;62509;46.248;6.018;2024-02-04T09:51:10;7.20;99.90
74155;DHT22;62509;46.248;6.018;2024-02-04T09:56:13;7.20;99.90
74155;DHT22;62509;46.248;6.018;2024-02-04T10:01:21;7.40;99.90
74155;DHT22;62509;46.248;6.018;2024-02-04T10:06:26;7.60;99.90
74155;DHT22;62509;46.248;6.018;2024-02-04T10:11:30;7.70;99.90
74155;DHT22;62509;46.248;6.018;2024-02-04T10:16:36;7.80;99.90
74155;DHT22;62509;46.248;6.018;2024-02-04T10:21:40;7.90;99.90
74155;DHT22;62509;46.248;6.018;2024-02-04T10:26:44;8.00;99.90
74155;DHT22;62509;46.248;6.018;2024-02-04T10:31:52;8.20;99.90
74155;DHT22;62509;46.248;6.018;2024-02-04T10:36:56;8.30;99.90
74155;DHT22;62509;46.248;6.018;2024-02-04T10:42:01;8.40;99.90
74155;DHT22;62509;46.248;6.018;2024-02-04T10:47:07;8.50;99.90
74155;DHT22;62509;46.248;6.018;2024-02-04T10:52:13;8.60;99.90
74155;DHT22;62509;46.248;6.018;2024-02-04T10:57:20;8.70;99.90
74155;DHT22;62509;46.248;6.018;2024-02-04T11:02:26;8.70;99.90
74155;DHT22;62509;46.248;6.018;2024-02-04T11:07:31;8.80;99.90
74155;DHT22;62509;46.248;6.018;2024-02-04T11:12:36;8.80;99.90
74155;DHT22;62509;46.248;6.018;2024-02-04T11:17:55;8.90;99.90
74155;DHT22;62509;46.248;6.018;2024-02-04T11:23:13;9.00;99.90
74155;DHT22;62509;46.248;6.018;2024-02-04T11:28:26;9.10;99.90
74155;DHT22;62509;46.248;6.018;2024-02-04T11:33:31;9.20;99.90
74155;DHT22;62509;46.248;6.018;2024-02-04T11:38:36;9.30;99.90
74155;DHT22;62509;46.248;6.018;2024-02-04T11:43:40;9.40;99.90
74155;DHT22;62509;46.248;6.018;2024-02-04T11:48:51;9.50;99.90
74155;DHT22;62509;46.248;6.018;2024-02-04T11:53:55;9.60;99.90
74155;DHT22;62509;46.248;6.018;2024-02-04T11:58:59;9.70;99.90
74155;DHT22;62509;46.248;6.018;2024-02-04T12:04:11;9.80;99.90
74155;DHT22;62509;46.248;6.018;2024-02-04T12:09:16;9.80;99.90
74155;DHT22;62509;46.248;6.018;2024-02-04T12:14:20;9.90;99.90
74155;DHT22;62509;46.248;6.018;2024-02-04T12:19:25;10.00;99.90
74155;DHT22;62509;46.248;6.018;2024-02-04T12:24:29;10.00;99.90
74155;DHT22;62509;46.248;6.018;2024-02-04T12:29:33;10.10;99.90
74155;DHT22;62509;46.248;6.018;2024-02-04T12:34:38;10.20;99.90
74155;DHT22;62509;46.248;6.018;2024-02-04T12:39:42;10.20;99.90
74155;DHT22;62509;46.248;6.018;2024-02-04T12:44:46;10.30;99.90
74155;DHT22;62509;46.248;6.018;2024-02-04T12:49:51;10.40;99.90
74155;DHT22;62509;46.248;6.018;2024-02-04T12:54:54;10.50;99.90
74155;DHT22;62509;46.248;6.018;2024-02-04T13:00:03;10.60;99.90
74155;DHT22;62509;46.248;6.018;2024-02-04T13:05:10;10.60;99.90
74155;DHT22;62509;46.248;6.018;2024-02-04T13:10:13;10.70;99.90
74155;DHT22;62509;46.248;6.018;2024-02-04T13:15:17;10.70;99.90
74155;DHT22;62509;46.248;6.018;2024-02-04T13:20:22;10.70;99.90
74155;DHT22;62509;46.248;6.018;2024-02-04T13:25:28;10.70;99.90
74155;DHT22;62509;46.248;6.018;2024-02-04T13:30:31;10.80;99.90
74155;DHT22;62509;46.248;6.018;2024-02-04T13:35:36;10.80;99.90
74155;DHT22;62509;46.248;6.018;2024-02-04T13:40:40;10.80;99.90
74155;DHT22;62509;46.248;6.018;2024-02-04T13:45:43;10.90;99.90
74155;DHT22;62509;46.248;6.018;2024-02-04T13:50:48;10.90;99.90
74155;DHT22;62509;46.248;6.018;2024-02-04T13:55:52;10.90;99.90
74155;DHT22;62509;46.248;6.018;2024-02-04T14:01:00;10.90;99.90
74155;DHT22;62509;46.248;6.018;2024-02-04T14:06:05;11.00;99.90
74155;DHT22;62509;46.248;6.018;2024-02-04T14:11:09;10.90;99.90
74155;DHT22;62509;46.248;6.018;2024-02-04T14:16:13;10.90;99.90
74155;DHT22;62509;46.248;6.018;2024-02-04T14:21:18;10.80;99.90
74155;DHT22;62509;46.248;6.018;2024-02-04T14:26:21;10.80;99.90
74155;DHT22;62509;46.248;6.018;2024-02-04T14:31:24;10.90;99.90
74155;DHT22;62509;46.248;6.018;2024-02-04T14:36:29;10.90;99.90
74155;DHT22;62509;46.248;6.018;2024-02-04T14:41:34;11.00;99.90
74155;DHT22;62509;46.248;6.018;2024-02-04T14:46:40;11.00;99.90
74155;DHT22;62509;46.248;6.018;2024-02-04T14:51:45;10.90;99.90
74155;DHT22;62509;46.248;6.018;2024-02-04T14:56:49;10.90;99.90
74155;DHT22;62509;46.248;6.018;2024-02-04T15:01:53;10.90;99.90
74155;DHT22;62509;46.248;6.018;2024-02-04T15:06:58;10.90;99.90
74155;DHT22;62509;46.248;6.018;2024-02-04T15:12:05;10.80;99.90
74155;DHT22;62509;46.248;6.018;2024-02-04T15:17:10;10.70;99.90
74155;DHT22;62509;46.248;6.018;2024-02-04T15:22:15;10.60;99.90
74155;DHT22;62509;46.248;6.018;2024-02-04T15:27:20;10.60;99.90
74155;DHT22;62509;46.248;6.018;2024-02-04T15:32:24;10.50;99.90
74155;DHT22;62509;46.248;6.018;2024-02-04T15:37:29;10.50;99.90
74155;DHT22;62509;46.248;6.018;2024-02-04T15:42:32;10.40;99.90
74155;DHT22;62509;46.248;6.018;2024-02-04T15:47:36;10.40;99.90
74155;DHT22;62509;46.248;6.018;2024-02-04T15:52:46;10.30;99.90
74155;DHT22;62509;46.248;6.018;2024-02-04T15:57:50;10.20;99.90
74155;DHT22;62509;46.248;6.018;2024-02-04T16:02:55;10.10;99.90
74155;DHT22;62509;46.248;6.018;2024-02-04T16:08:01;9.90;99.90
74155;DHT22;62509;46.248;6.018;2024-02-04T16:13:06;9.70;99.90
74155;DHT22;62509;46.248;6.018;2024-02-04T16:18:12;9.60;99.90
74155;DHT22;62509;46.248;6.018;2024-02-04T16:23:17;9.40;99.90
74155;DHT22;62509;46.248;6.018;2024-02-04T16:28:21;9.20;99.90
74155;DHT22;62509;46.248;6.018;2024-02-04T16:33:24;9.10;99.90
74155;DHT22;62509;46.248;6.018;2024-02-04T16:38:29;9.00;99.90
74155;DHT22;62509;46.248;6.018;2024-02-04T16:43:32;8.90;99.90
74155;DHT22;62509;46.248;6.018;2024-02-04T16:48:36;8.70;99.90
74155;DHT22;62509;46.248;6.018;2024-02-04T16:53:41;8.60;99.90
74155;DHT22;62509;46.248;6.018;2024-02-04T16:58:44;8.50;99.90
74155;DHT22;62509;46.248;6.018;2024-02-04T17:03:47;8.30;99.90
74155;DHT22;62509;46.248;6.018;2024-02-04T17:08:54;8.20;99.90
74155;DHT22;62509;46.248;6.018;2024-02-04T17:13:58;8.10;99.90
74155;DHT22;62509;46.248;6.018;2024-02-04T17:19:04;8.10;99.90
74155;DHT22;62509;46.248;6.018;2024-02-04T17:24:14;8.00;99.90
74155;DHT22;62509;46.248;6.018;2024-02-04T17:29:18;7.90;99.90
74155;DHT22;62509;46.248;6.018;2024-02-04T17:34:22;7.90;99.90
74155;DHT22;62509;46.248;6.018;2024-02-04T17:39:28;7.80;99.90
74155;DHT22;62509;46.248;6.018;2024-02-04T17:44:31;7.70;99.90
74155;DHT22;62509;46.248;6.018;2024-02-04T17:49:35;7.70;99.90
74155;DHT22;62509;46.248;6.018;2024-02-04T17:54:42;7.60;99.90
74155;DHT22;62509;46.248;6.018;2024-02-04T17:59:45;7.50;99.90
74155;DHT22;62509;46.248;6.018;2024-02-04T18:04:48;7.50;99.90
74155;DHT22;62509;46.248;6.018;2024-02-04T18:09:57;7.50;99.90
74155;DHT22;62509;46.248;6.018;2024-02-04T18:15:00;7.40;99.90
74155;DHT22;62509;46.248;6.018;2024-02-04T18:20:07;7.40;99.90
74155;DHT22;62509;46.248;6.018;2024-02-04T18:25:13;7.30;99.90
74155;DHT22;62509;46.248;6.018;2024-02-04T18:30:16;7.20;99.90
74155;DHT22;62509;46.248;6.018;2024-02-04T18:35:22;7.20;99.90
74155;DHT22;62509;46.248;6.018;2024-02-04T18:40:29;7.20;99.90
74155;DHT22;62509;46.248;6.018;2024-02-04T18:45:33;7.10;99.90
74155;DHT22;62509;46.248;6.018;2024-02-04T18:50:36;7.10;99.90
74155;DHT22;62509;46.248;6.018;2024-02-04T18:55:41;7.00;99.90
74155;DHT22;62509;46.248;6.018;2024-02-04T19:00:44;6.90;99.90
74155;DHT22;62509;46.248;6.018;2024-02-04T19:05:48;6.90;99.90
74155;DHT22;62509;46.248;6.018;2024-02-04T19:10:53;6.80;99.90
74155;DHT22;62509;46.248;6.018;2024-02-04T19:15:58;6.70;99.90
74155;DHT22;62509;46.248;6.018;2024-02-04T19:21:02;6.60;99.90
74155;DHT22;62509;46.248;6.018;2024-02-04T19:26:08;6.50;99.90
74155;DHT22;62509;46.248;6.018;2024-02-04T19:31:13;6.40;99.90
74155;DHT22;62509;46.248;6.018;2024-02-04T19:36:17;6.40;99.90
74155;DHT22;62509;46.248;6.018;2024-02-04T19:41:22;6.40;99.90
74155;DHT22;62509;46.248;6.018;2024-02-04T19:46:27;6.30;99.90
74155;DHT22;62509;46.248;6.018;2024-02-04T19:51:31;6.30;99.90
74155;DHT22;62509;46.248;6.018;2024-02-04T19:56:37;6.30;99.90
74155;DHT22;62509;46.248;6.018;2024-02-04T20:01:40;6.20;99.90
74155;DHT22;62509;46.248;6.018;2024-02-04T20:06:43;6.20;99.90
74155;DHT22;62509;46.248;6.018;2024-02-04T20:11:50;6.20;99.90
74155;DHT22;62509;46.248;6.018;2024-02-04T20:16:53;6.20;99.90
74155;DHT22;62509;46.248;6.018;2024-02-04T20:21:57;6.20;99.90
74155;DHT22;62509;46.248;6.018;2024-02-04T20:27:04;6.20;99.90
74155;DHT22;62509;46.248;6.018;2024-02-04T20:32:07;6.10;99.90
74155;DHT22;62509;46.248;6.018;2024-02-04T20:37:11;6.10;99.90
74155;DHT22;62509;46.248;6.018;2024-02-04T20:42:16;6.00;99.90
74155;DHT22;62509;46.248;6.018;2024-02-04T20:47:20;6.00;99.90
74155;DHT22;62509;46.248;6.018;2024-02-04T20:52:24;5.90;99.90
74155;DHT22;62509;46.248;6.018;2024-02-04T20:57:28;5.90;99.90
74155;DHT22;62509;46.248;6.018;2024-02-04T21:02:32;5.80;99.90
74155;DHT22;62509;46.248;6.018;2024-02-04T21:07:35;5.80;99.90
74155;DHT22;62509;46.248;6.018;2024-02-04T21:12:40;5.80;99.90
74155;DHT22;62509;46.248;6.018;2024-02-04T21:17:45;5.80;99.90
74155;DHT22;62509;46.248;6.018;2024-02-04T21:22:50;5.80;99.90
74155;DHT22;62509;46.248;6.018;2024-02-04T21:27:55;5.80;99.90
74155;DHT22;62509;46.248;6.018;2024-02-04T21:33:00;5.70;99.90
74155;DHT22;62509;46.248;6.018;2024-02-04T21:38:03;5.70;99.90
74155;DHT22;62509;46.248;6.018;2024-02-04T21:43:08;5.70;99.90
74155;DHT22;62509;46.248;6.018;2024-02-04T21:48:12;5.60;99.90
74155;DHT22;62509;46.248;6.018;2024-02-04T21:53:15;5.50;99.90
74155;DHT22;62509;46.248;6.018;2024-02-04T21:58:20;5.50;99.90
74155;DHT22;62509;46.248;6.018;2024-02-04T22:03:23;5.50;99.90
74155;DHT22;62509;46.248;6.018;2024-02-04T22:08:27;5.40;99.90
74155;DHT22;62509;46.248;6.018;2024-02-04T22:13:32;5.40;99.90
74155;DHT22;62509;46.248;6.018;2024-02-04T22:18:35;5.40;99.90
74155;DHT22;62509;46.248;6.018;2024-02-04T22:23:39;5.40;99.90
74155;DHT22;62509;46.248;6.018;2024-02-04T22:28:43;5.30;99.90
74155;DHT22;62509;46.248;6.018;2024-02-04T22:33:47;5.20;99.90
74155;DHT22;62509;46.248;6.018;2024-02-04T22:38:50;5.20;99.90
74155;DHT22;62509;46.248;6.018;2024-02-04T22:43:55;5.30;99.90
74155;DHT22;62509;46.248;6.018;2024-02-04T22:49:00;5.30;99.90
74155;DHT22;62509;46.248;6.018;2024-02-04T22:54:04;5.10;99.90
74155;DHT22;62509;46.248;6.018;2024-02-04T22:59:09;5.10;99.90
74155;DHT22;62509;46.248;6.018;2024-02-04T23:04:12;5.10;99.90
74155;DHT22;62509;46.248;6.018;2024-02-04T23:09:16;5.10;99.90
74155;DHT22;62509;46.248;6.018;2024-02-04T23:14:21;5.00;99.90
74155;DHT22;62509;46.248;6.018;2024-02-04T23:19:25;5.00;99.90
74155;DHT22;62509;46.248;6.018;2024-02-04T23:24:30;5.00;99.90
74155;DHT22;62509;46.248;6.018;2024-02-04T23:29:39;5.00;99.90
74155;DHT22;62509;46.248;6.018;2024-02-04T23:34:42;5.00;99.90
74155;DHT22;62509;46.248;6.018;2024-02-04T23:39:46;4.90;99.90
74155;DHT22;62509;46.248;6.018;2024-02-04T23:44:51;4.90;99.90
74155;DHT22;62509;46.248;6.018;2024-02-04T23:49:54;4.90;99.90
74155;DHT22;62509;46.248;6.018;2024-02-04T23:54:58;4.80;99.90
